Time;durP1;ratioP1;P1;durP2;ratioP2;P2;SDS_P1;SDS_P2;PMS_P1;PMS_P2;Temp;Humidity;BMP_temperature;BMP_pressure;BME280_temperature;BME280_humidity;BME280_pressure;Samples;Min_cycle;Max_cycle;Signal;HPM_P1;HPM_P2
2024/01/07 00:02:16;;;;;;;14.18;5.32;;;4.60;99.90;;;4.35;100.00;100892.44;5249630;28;20497;-47
2024/01/07 00:04:50;;;;;;;13.25;5.72;;;4.60;99.90;;;4.34;100.00;100888.06;5252216;28;20101;-47
2024/01/07 00:07:23;;;;;;;16.58;5.68;;;4.60;99.90;;;4.36;100.00;100895.09;5253049;28;20040;-47
2024/01/07 00:09:55;;;;;;;16.75;4.80;;;4.60;99.90;;;4.37;100.00;100893.44;5253076;28;20134;-47
2024/01/07 00:12:27;;;;;;;13.60;4.20;;;4.60;99.90;;;4.36;100.00;100892.50;5255850;28;20052;-48
2024/01/07 00:15:00;;;;;;;8.88;4.20;;;4.60;99.90;;;4.34;100.00;100898.38;5256689;28;20045;-48
2024/01/07 00:17:32;;;;;;;13.02;5.47;;;4.60;99.90;;;4.33;100.00;100901.78;5255239;28;20076;-46
2024/01/07 00:20:08;;;;;;;13.73;4.40;;;4.60;99.90;;;4.31;100.00;100903.38;5255383;28;20063;-47
2024/01/07 00:22:41;;;;;;;13.02;5.85;;;4.60;99.90;;;4.31;100.00;100911.13;5260005;28;20056;-47
2024/01/07 00:25:13;;;;;;;14.27;5.85;;;4.60;99.90;;;4.35;100.00;100906.22;5259079;28;20044;-47
2024/01/07 00:27:46;;;;;;;19.58;4.97;;;4.60;99.90;;;4.35;100.00;100910.50;5257499;28;20775;-47
2024/01/07 00:30:19;;;;;;;16.20;6.07;;;4.60;99.90;;;4.33;100.00;100914.69;5257517;28;20040;-49
2024/01/07 00:32:52;;;;;;;12.00;5.15;;;4.60;99.90;;;4.31;100.00;100912.00;5261376;28;20036;-48
2024/01/07 00:35:25;;;;;;;11.77;4.35;;;4.60;99.90;;;4.32;100.00;100915.47;5252160;28;20418;-46
2024/01/07 00:37:58;;;;;;;12.23;4.80;;;4.60;99.90;;;4.29;100.00;100912.69;5254124;28;20049;-47
2024/01/07 00:40:30;;;;;;;14.05;4.43;;;4.60;99.90;;;4.28;100.00;100916.97;5257127;28;20139;-47
2024/01/07 00:43:03;;;;;;;14.27;4.88;;;4.60;99.90;;;4.27;100.00;100909.13;5254038;28;20044;-47
2024/01/07 00:45:35;;;;;;;15.25;5.20;;;4.60;99.90;;;4.28;100.00;100914.38;5255444;28;20048;-47
2024/01/07 00:48:08;;;;;;;13.63;4.57;;;4.60;99.90;;;4.29;100.00;100916.16;5264301;28;20044;-47
2024/01/07 00:50:43;;;;;;;13.73;5.35;;;4.60;99.90;;;4.31;100.00;100908.53;5257734;28;20048;-47
2024/01/07 00:53:15;;;;;;;14.27;4.47;;;4.60;99.90;;;4.26;100.00;100905.66;5251977;28;20135;-47
2024/01/07 00:55:47;;;;;;;11.32;4.78;;;4.60;99.90;;;4.24;100.00;100911.53;5253784;28;20040;-46
2024/01/07 00:58:20;;;;;;;11.90;3.83;;;4.60;99.90;;;4.24;100.00;100907.28;5247716;28;20051;-47
2024/01/07 01:00:53;;;;;;;12.20;4.40;;;4.60;99.90;;;4.22;100.00;100918.28;5259669;28;20144;-47
2024/01/07 01:03:26;;;;;;;9.00;3.90;;;4.50;99.90;;;4.23;100.00;100920.06;5258136;28;20052;-48
2024/01/07 01:05:59;;;;;;;12.93;4.57;;;4.50;99.90;;;4.23;100.00;100923.53;5248692;28;20036;-47
2024/01/07 01:08:32;;;;;;;9.73;3.53;;;4.50;99.90;;;4.24;100.00;100919.28;5258579;28;20073;-47
2024/01/07 01:11:04;;;;;;;12.52;4.30;;;4.60;99.90;;;4.21;100.00;100921.66;5251964;28;20399;-46
2024/01/07 01:13:37;;;;;;;11.75;4.20;;;4.60;99.90;;;4.21;100.00;100931.97;5253407;28;20060;-47
2024/01/07 01:16:09;;;;;;;9.13;3.70;;;4.60;99.90;;;4.23;100.00;100935.53;5253030;28;20055;-46
2024/01/07 01:18:42;;;;;;;8.98;3.72;;;4.60;99.90;;;4.26;100.00;100938.31;5259829;28;20054;-47
2024/01/07 01:21:16;;;;;;;11.13;4.32;;;4.60;99.90;;;4.24;100.00;100934.78;5254463;28;20049;-46
2024/01/07 01:23:48;;;;;;;10.98;4.47;;;4.60;99.90;;;4.24;100.00;100939.94;5253014;28;20144;-47
2024/01/07 01:26:21;;;;;;;8.40;4.10;;;4.50;99.90;;;4.25;100.00;100944.28;5247904;28;20072;-47
2024/01/07 01:28:53;;;;;;;10.15;3.63;;;4.60;99.90;;;4.25;100.00;100946.88;5253764;28;20044;-47
2024/01/07 01:31:25;;;;;;;8.70;3.47;;;4.50;99.90;;;4.25;100.00;100941.72;5259242;28;20121;-47
2024/01/07 01:33:58;;;;;;;9.63;4.05;;;4.50;99.90;;;4.27;100.00;100942.69;5249977;28;20131;-47
2024/01/07 01:36:33;;;;;;;9.82;4.38;;;4.60;99.90;;;4.27;100.00;100945.28;5252587;28;20106;-47
2024/01/07 01:39:06;;;;;;;8.43;3.22;;;4.60;99.90;;;4.27;100.00;100947.84;5260918;28;20048;-47
2024/01/07 01:41:38;;;;;;;6.68;3.60;;;4.60;99.90;;;4.29;100.00;100951.41;5249514;28;20590;-46
2024/01/07 01:44:10;;;;;;;7.95;4.10;;;4.60;99.90;;;4.27;100.00;100958.16;5258869;28;20047;-46
2024/01/07 01:46:43;;;;;;;5.82;2.95;;;4.60;99.90;;;4.28;100.00;100954.78;5251430;28;20502;-47
2024/01/07 01:49:15;;;;;;;10.02;3.78;;;4.60;99.90;;;4.29;100.00;100957.47;5245512;28;20040;-47
2024/01/07 01:51:50;;;;;;;6.97;2.95;;;4.60;99.90;;;4.31;100.00;100955.88;5253558;28;20511;-47
2024/01/07 01:54:23;;;;;;;9.65;3.20;;;4.60;99.90;;;4.33;100.00;100966.28;5254541;28;20522;-47
2024/01/07 01:56:55;;;;;;;7.05;2.95;;;4.60;99.90;;;4.32;100.00;100959.34;5253501;28;20052;-47
2024/01/07 01:59:29;;;;;;;8.27;3.05;;;4.60;99.90;;;4.34;100.00;100960.34;5258247;28;20036;-47
2024/01/07 02:02:03;;;;;;;6.13;2.95;;;4.60;99.90;;;4.34;100.00;100962.91;5271203;28;20051;-47
2024/01/07 02:04:36;;;;;;;11.93;3.50;;;4.60;99.90;;;4.33;100.00;100959.44;5249577;28;20125;-47
2024/01/07 02:07:11;;;;;;;8.18;3.13;;;4.60;99.90;;;4.35;100.00;100967.28;5256085;28;20314;-47
2024/01/07 02:09:43;;;;;;;7.68;3.10;;;4.70;99.90;;;4.34;100.00;100965.50;5252107;28;20522;-47
2024/01/07 02:12:15;;;;;;;6.18;2.47;;;4.70;99.90;;;4.35;100.00;100977.59;5253770;28;20137;-46
2024/01/07 02:14:48;;;;;;;7.95;2.92;;;4.60;99.90;;;4.35;100.00;100977.59;5256001;28;20055;-46
2024/01/07 02:17:21;;;;;;;8.55;3.05;;;4.70;99.90;;;4.39;100.00;100973.53;5253959;28;20047;-47
2024/01/07 02:19:53;;;;;;;7.50;2.95;;;4.70;99.90;;;4.41;100.00;100977.97;5258901;28;20047;-48
2024/01/07 02:22:27;;;;;;;6.93;3.08;;;4.70;99.90;;;4.41;100.00;100977.97;5259406;28;20055;-47
2024/01/07 02:25:01;;;;;;;11.35;3.92;;;4.70;99.90;;;4.40;100.00;100983.94;5254841;28;20151;-46
2024/01/07 02:27:34;;;;;;;8.63;3.40;;;4.70;99.90;;;4.39;100.00;100979.59;5250366;28;20040;-47
2024/01/07 02:30:08;;;;;;;8.70;3.22;;;4.70;99.90;;;4.41;100.00;100988.31;5258067;28;20056;-47
2024/01/07 02:32:40;;;;;;;9.88;3.00;;;4.70;99.90;;;4.42;100.00;100982.34;5254071;28;20044;-47
2024/01/07 02:35:13;;;;;;;8.07;3.13;;;4.70;99.90;;;4.42;100.00;100984.94;5260284;28;20044;-49
2024/01/07 02:37:45;;;;;;;8.40;3.47;;;4.70;99.90;;;4.41;100.00;100983.16;5258296;28;20048;-47
2024/01/07 02:40:19;;;;;;;7.30;3.28;;;4.70;99.90;;;4.42;100.00;100976.28;5259434;28;20498;-47
2024/01/07 02:42:51;;;;;;;12.55;3.03;;;4.70;99.90;;;4.43;100.00;100981.53;5250196;28;20052;-46
2024/01/07 02:45:24;;;;;;;6.20;2.38;;;4.70;99.90;;;4.42;100.00;100987.50;5250755;28;20047;-47
2024/01/07 02:47:56;;;;;;;5.55;3.00;;;4.70;99.90;;;4.41;100.00;100985.72;5260592;28;20172;-47
2024/01/07 02:50:29;;;;;;;8.85;3.28;;;4.70;99.90;;;4.38;100.00;100982.97;5248574;28;20485;-47
2024/01/07 02:53:01;;;;;;;8.48;3.60;;;4.70;99.90;;;4.36;100.00;100997.44;5252122;28;20037;-47
2024/01/07 02:55:35;;;;;;;11.20;4.50;;;4.70;99.90;;;4.37;100.00;100991.50;5255181;28;20055;-47
2024/01/07 02:58:07;;;;;;;8.90;3.45;;;4.70;99.90;;;4.37;100.00;100986.34;5258402;28;20049;-47
2024/01/07 03:00:40;;;;;;;10.02;3.60;;;4.70;99.90;;;4.38;100.00;100992.41;5255251;28;20086;-47
2024/01/07 03:03:12;;;;;;;12.90;4.57;;;4.70;99.90;;;4.36;100.00;100997.44;5248715;28;20526;-46
2024/01/07 03:05:45;;;;;;;8.07;3.78;;;4.70;99.90;;;4.39;100.00;100994.19;5259883;28;20121;-47
2024/01/07 03:08:17;;;;;;;11.23;3.55;;;4.70;99.90;;;4.40;100.00;101006.28;5258830;28;20056;-47
2024/01/07 03:10:51;;;;;;;11.80;4.53;;;4.70;99.90;;;4.38;100.00;101002.72;5256458;28;20472;-47
2024/01/07 03:13:23;;;;;;;9.60;4.90;;;4.70;99.90;;;4.38;100.00;101008.78;5250458;28;20048;-47
2024/01/07 03:15:55;;;;;;;13.50;4.60;;;4.70;99.90;;;4.36;100.00;101005.19;5246939;28;20045;-47
2024/01/07 03:18:29;;;;;;;12.30;4.93;;;4.70;99.90;;;4.34;100.00;101002.53;5245241;28;20399;-47
2024/01/07 03:21:01;;;;;;;13.63;4.95;;;4.70;99.90;;;4.32;100.00;101005.81;5250294;28;20119;-46
2024/01/07 03:23:34;;;;;;;8.80;4.20;;;4.60;99.90;;;4.30;100.00;101009.97;5257826;28;20420;-46
2024/01/07 03:26:07;;;;;;;13.13;4.97;;;4.60;99.90;;;4.30;100.00;101010.88;5259550;28;20417;-47
2024/01/07 03:28:40;;;;;;;11.75;4.60;;;4.60;99.90;;;4.32;100.00;101008.38;5246416;28;20057;-47
2024/01/07 03:31:15;;;;;;;12.85;4.68;;;4.60;99.90;;;4.29;100.00;101009.06;5249919;28;20488;-47
2024/01/07 03:33:47;;;;;;;13.93;5.68;;;4.60;99.90;;;4.28;100.00;101016.72;5254988;28;20052;-47
2024/01/07 03:36:19;;;;;;;13.23;5.50;;;4.60;99.90;;;4.26;100.00;101019.22;5255230;28;20491;-47
2024/01/07 03:38:52;;;;;;;11.35;4.57;;;4.60;99.90;;;4.27;100.00;101012.38;5249931;28;20069;-46
2024/01/07 03:41:26;;;;;;;15.40;5.55;;;4.60;99.90;;;4.29;100.00;101013.34;5254599;28;20102;-46
2024/01/07 03:43:58;;;;;;;10.80;4.40;;;4.60;99.90;;;4.29;100.00;101018.50;5261133;28;20083;-47
2024/01/07 03:46:31;;;;;;;13.23;5.10;;;4.60;99.90;;;4.28;100.00;101021.88;5250639;28;20051;-47
2024/01/07 03:49:03;;;;;;;15.73;5.65;;;4.50;99.90;;;4.28;100.00;101017.63;5262960;28;20045;-47
2024/01/07 03:51:35;;;;;;;11.25;4.63;;;4.60;99.90;;;4.31;100.00;101022.09;5259209;28;20049;-47
2024/01/07 03:54:08;;;;;;;12.35;5.00;;;4.60;99.90;;;4.31;100.00;101023.00;5252811;28;20064;-47
2024/01/07 03:56:42;;;;;;;14.05;5.85;;;4.60;99.90;;;4.30;100.00;101020.28;5256160;28;20051;-47
2024/01/07 03:59:14;;;;;;;13.68;5.28;;;4.60;99.90;;;4.30;100.00;101025.44;5262766;28;20392;-46
2024/01/07 04:01:47;;;;;;;9.80;4.43;;;4.60;99.90;;;4.31;100.00;101027.25;5255042;28;20405;-47
2024/01/07 04:04:19;;;;;;;13.32;5.18;;;4.60;99.90;;;4.32;100.00;101029.03;5258959;28;20410;-47
2024/01/07 04:06:51;;;;;;;10.52;3.85;;;4.60;99.90;;;4.30;100.00;101025.44;5264400;28;20595;-47
2024/01/07 04:09:24;;;;;;;13.45;4.95;;;4.60;99.90;;;4.32;100.00;101029.03;5261090;28;20051;-47
2024/01/07 04:11:57;;;;;;;11.93;4.55;;;4.60;99.90;;;4.31;100.00;101032.41;5256146;28;20052;-46
2024/01/07 04:14:33;;;;;;;13.00;4.55;;;4.60;99.90;;;4.33;100.00;101041.16;5255509;28;20514;-47
2024/01/07 04:17:08;;;;;;;9.70;3.90;;;4.60;99.90;;;4.30;100.00;101044.44;5250044;28;20044;-47
2024/01/07 04:19:40;;;;;;;11.27;3.65;;;4.60;99.90;;;4.27;100.00;101045.91;5260003;28;20501;-47
2024/01/07 04:22:12;;;;;;;8.10;4.25;;;4.60;99.90;;;4.23;100.00;101044.81;5260555;28;20047;-46
2024/01/07 04:24:45;;;;;;;9.10;3.63;;;4.60;99.90;;;4.23;100.00;101044.81;5259403;28;20052;-46
2024/01/07 04:27:19;;;;;;;11.40;4.18;;;4.50;99.90;;;4.20;100.00;101044.63;5276030;28;20045;-47
2024/01/07 04:29:51;;;;;;;9.57;3.22;;;4.50;99.90;;;4.22;100.00;101037.88;5252507;28;20072;-47
2024/01/07 04:32:24;;;;;;;7.43;3.70;;;4.50;99.90;;;4.25;100.00;101047.50;5256164;28;20078;-46
2024/01/07 04:34:57;;;;;;;8.25;3.65;;;4.50;99.90;;;4.19;100.00;101039.38;5249386;28;20048;-47
2024/01/07 04:37:29;;;;;;;11.82;4.55;;;4.50;99.90;;;4.15;100.00;101042.53;5261014;28;20051;-47
2024/01/07 04:40:02;;;;;;;15.40;3.30;;;4.50;99.90;;;4.15;100.00;101052.88;5249956;28;20122;-48
2024/01/07 04:42:36;;;;;;;12.75;3.67;;;4.50;99.90;;;4.14;100.00;101053.66;5257964;28;20396;-48
2024/01/07 04:45:09;;;;;;;11.13;3.80;;;4.40;99.90;;;4.15;100.00;101055.44;5259375;28;20047;-46
2024/01/07 04:47:41;;;;;;;12.00;3.78;;;4.50;99.90;;;4.13;100.00;101057.94;5254666;28;20045;-47
2024/01/07 04:50:15;;;;;;;11.30;4.15;;;4.40;99.90;;;4.13;100.00;101057.03;5253331;28;20051;-46
2024/01/07 04:52:47;;;;;;;9.05;4.68;;;4.40;99.90;;;4.12;100.00;101068.16;5260967;28;20056;-48
2024/01/07 04:55:19;;;;;;;9.48;4.00;;;4.40;99.90;;;4.09;100.00;101082.63;5259998;28;20041;-47
2024/01/07 04:57:53;;;;;;;13.00;3.90;;;4.40;99.90;;;4.12;100.00;101081.06;5253532;28;20055;-47
2024/01/07 05:00:25;;;;;;;8.68;3.95;;;4.40;99.90;;;4.11;100.00;101084.41;5253446;28;20069;-47
2024/01/07 05:02:58;;;;;;;9.48;3.83;;;4.40;99.90;;;4.14;100.00;101082.03;5252080;28;20045;-48
2024/01/07 05:05:30;;;;;;;11.23;5.00;;;4.40;99.90;;;4.13;100.00;101082.84;5258483;28;20055;-47
2024/01/07 05:08:02;;;;;;;7.55;3.92;;;4.40;99.90;;;4.13;100.00;101082.84;5252490;28;20098;-47
2024/01/07 05:10:35;;;;;;;11.75;4.93;;;4.40;99.90;;;4.13;100.00;101082.84;5263204;28;20421;-47
2024/01/07 05:13:08;;;;;;;11.18;4.55;;;4.40;99.90;;;4.09;100.00;101092.94;5261020;28;20052;-47
2024/01/07 05:15:41;;;;;;;10.73;3.60;;;4.40;99.90;;;4.05;100.00;101090.97;5251009;28;20048;-48
2024/01/07 05:18:14;;;;;;;12.52;4.78;;;4.30;99.90;;;4.03;100.00;101091.66;5264506;28;20036;-47
2024/01/07 05:20:47;;;;;;;9.02;4.00;;;4.30;99.90;;;4.03;100.00;101095.13;5263013;28;20430;-47
2024/01/07 05:23:19;;;;;;;10.32;3.67;;;4.30;99.90;;;4.01;100.00;101104.47;5260868;28;20494;-47
2024/01/07 05:25:52;;;;;;;9.10;3.67;;;4.30;99.90;;;3.97;100.00;101093.81;5251065;28;20052;-47
2024/01/07 05:28:26;;;;;;;10.15;3.42;;;4.30;99.90;;;3.91;100.00;101102.09;5246469;28;20059;-47
2024/01/07 05:30:58;;;;;;;9.55;3.95;;;4.30;99.90;;;3.90;100.00;101100.28;5261178;28;20051;-46
2024/01/07 05:33:31;;;;;;;10.07;3.88;;;4.30;99.90;;;3.91;100.00;101099.50;5264241;28;20044;-48
2024/01/07 05:36:05;;;;;;;10.23;4.40;;;4.30;99.90;;;3.95;100.00;101114.38;5250431;28;20508;-47
2024/01/07 05:38:37;;;;;;;12.80;5.43;;;4.30;99.90;;;3.97;100.00;101117.03;5256405;28;20056;-48
2024/01/07 05:41:10;;;;;;;11.20;4.65;;;4.30;99.90;;;3.97;100.00;101117.94;5258914;28;20048;-47
2024/01/07 05:43:44;;;;;;;11.18;4.05;;;4.30;99.90;;;3.96;100.00;101118.72;5248919;28;20056;-46
2024/01/07 05:46:16;;;;;;;15.45;5.53;;;4.30;99.90;;;3.94;100.00;101117.75;5264009;28;20418;-47
2024/01/07 05:48:49;;;;;;;13.10;5.75;;;4.20;99.90;;;3.97;100.00;101122.19;5265347;28;20090;-48
2024/01/07 05:51:22;;;;;;;11.52;4.97;;;4.30;99.90;;;3.96;100.00;101130.75;5251656;28;20056;-47
2024/01/07 05:53:54;;;;;;;10.98;4.70;;;4.30;99.90;;;3.94;100.00;101133.22;5260344;28;20052;-46
2024/01/07 05:56:27;;;;;;;11.93;5.47;;;4.20;99.90;;;3.93;100.00;101126.28;5248408;28;20051;-47
2024/01/07 05:59:00;;;;;;;10.35;3.83;;;4.20;99.90;;;3.93;100.00;101138.28;5247658;28;20052;-48
2024/01/07 06:01:33;;;;;;;11.73;4.85;;;4.20;99.90;;;3.93;100.00;101133.13;5252030;28;20047;-46
2024/01/07 06:04:05;;;;;;;13.48;4.35;;;4.20;99.90;;;3.91;100.00;101135.63;5257974;28;20422;-47
2024/01/07 06:06:38;;;;;;;11.82;5.25;;;4.30;99.90;;;3.89;100.00;101141.44;5253460;28;20052;-46
2024/01/07 06:09:10;;;;;;;11.75;4.57;;;4.20;99.90;;;3.90;100.00;101140.66;5261907;28;20044;-47
2024/01/07 06:11:42;;;;;;;11.77;4.20;;;4.20;99.90;;;3.91;100.00;101145.94;5261501;28;20189;-47
2024/01/07 06:14:16;;;;;;;10.00;4.22;;;4.20;99.90;;;3.89;100.00;101150.06;5247635;28;20576;-46
2024/01/07 06:16:49;;;;;;;14.27;5.88;;;4.20;99.90;;;3.89;100.00;101155.22;5247999;28;20055;-47
2024/01/07 06:19:22;;;;;;;13.90;4.40;;;4.20;99.90;;;3.89;100.00;101157.81;5259010;28;20052;-46
2024/01/07 06:21:54;;;;;;;11.57;4.95;;;4.20;99.90;;;3.88;100.00;101161.19;5261403;28;20056;-47
2024/01/07 06:24:26;;;;;;;10.40;4.85;;;4.20;99.90;;;3.89;100.00;101159.50;5253198;28;20271;-47
2024/01/07 06:26:59;;;;;;;10.85;5.10;;;4.20;99.90;;;3.89;100.00;101162.97;5256037;28;20072;-47
2024/01/07 06:29:33;;;;;;;11.35;4.78;;;4.20;99.90;;;3.86;100.00;101170.50;5257137;28;20060;-47
2024/01/07 06:32:06;;;;;;;11.48;3.85;;;4.20;99.90;;;3.86;100.00;101178.25;5245329;28;20519;-47
2024/01/07 06:34:38;;;;;;;13.38;5.05;;;4.20;99.90;;;3.86;100.00;101177.34;5250708;28;20574;-47
2024/01/07 06:37:10;;;;;;;12.40;4.25;;;4.20;99.90;;;3.87;100.00;101185.19;5248285;28;20043;-47
2024/01/07 06:39:43;;;;;;;9.13;4.43;;;4.20;99.90;;;3.89;100.00;101185.28;5252995;28;20711;-47
2024/01/07 06:42:16;;;;;;;12.90;5.22;;;4.20;99.90;;;3.88;100.00;101193.81;5251375;28;20059;-47
2024/01/07 06:44:49;;;;;;;12.70;5.13;;;4.20;99.90;;;3.86;100.00;101190.25;5257762;28;20122;-47
2024/01/07 06:47:22;;;;;;;10.98;4.75;;;4.10;99.90;;;3.84;100.00;101191.81;5246150;28;20056;-47
2024/01/07 06:49:55;;;;;;;8.90;4.97;;;4.10;99.90;;;3.84;100.00;101202.13;5258584;28;20044;-47
2024/01/07 06:52:27;;;;;;;12.13;4.25;;;4.20;99.90;;;3.86;100.00;101200.56;5258456;28;20052;-47
2024/01/07 06:54:59;;;;;;;11.85;4.72;;;4.10;99.90;;;3.86;100.00;101195.41;5254698;28;20490;-47
2024/01/07 06:57:32;;;;;;;11.27;4.40;;;4.20;99.90;;;3.84;100.00;101213.34;5246513;28;20052;-47
2024/01/07 07:00:08;;;;;;;13.95;5.20;;;4.10;99.90;;;3.80;100.00;101216.53;5246738;28;20069;-47
2024/01/07 07:02:40;;;;;;;14.93;4.97;;;4.10;99.90;;;3.78;100.00;101219.00;5247788;28;20041;-47
2024/01/07 07:05:12;;;;;;;10.18;5.07;;;4.10;99.90;;;3.78;100.00;101218.06;5243789;28;20045;-46
2024/01/07 07:07:45;;;;;;;13.75;5.32;;;4.10;99.90;;;3.81;100.00;101218.31;5250464;28;20052;-47
2024/01/07 07:10:17;;;;;;;15.55;4.97;;;4.10;99.90;;;3.80;100.00;101219.09;5269113;28;20044;-46
2024/01/07 07:12:50;;;;;;;12.10;4.53;;;4.10;99.90;;;3.83;100.00;101223.56;5258906;28;20053;-47
2024/01/07 07:15:26;;;;;;;9.90;4.25;;;4.10;99.90;;;3.85;100.00;101234.84;5252683;28;20056;-46
2024/01/07 07:17:59;;;;;;;9.20;4.30;;;4.10;99.90;;;3.86;100.00;101237.56;5266475;28;20048;-48
2024/01/07 07:20:31;;;;;;;11.40;4.63;;;4.20;99.90;;;3.83;100.00;101236.44;5259310;28;20098;-46
2024/01/07 07:23:04;;;;;;;12.48;5.18;;;4.10;99.90;;;3.84;100.00;101239.13;5245720;28;20075;-46
2024/01/07 07:25:36;;;;;;;8.02;3.17;;;4.10;99.90;;;3.83;100.00;101245.09;5252097;28;20052;-47
2024/01/07 07:28:08;;;;;;;11.70;3.92;;;4.10;99.90;;;3.84;100.00;101248.56;5257465;28;20412;-47
2024/01/07 07:30:42;;;;;;;9.60;5.57;;;4.10;99.90;;;3.82;100.00;101253.63;5253808;28;20053;-47
2024/01/07 07:33:14;;;;;;;14.75;6.05;;;4.10;99.90;;;3.81;100.00;101255.31;5247311;28;20102;-46
2024/01/07 07:35:47;;;;;;;12.02;4.72;;;4.10;99.90;;;3.82;100.00;101269.09;5248552;28;20074;-48
2024/01/07 07:38:19;;;;;;;10.98;4.13;;;4.10;99.90;;;3.83;100.00;101270.88;5251437;28;20041;-47
2024/01/07 07:40:52;;;;;;;13.95;5.03;;;4.10;99.90;;;3.83;100.00;101273.44;5252642;28;20052;-47
2024/01/07 07:43:25;;;;;;;10.23;4.60;;;4.10;99.90;;;3.76;100.00;101276.41;5254440;28;20036;-47
2024/01/07 07:45:59;;;;;;;9.30;3.88;;;4.10;99.90;;;3.74;100.00;101277.97;5253956;28;20057;-47
2024/01/07 07:48:31;;;;;;;8.43;4.18;;;4.00;99.90;;;3.72;100.00;101285.63;5250192;28;20453;-46
2024/01/07 07:51:04;;;;;;;11.05;4.95;;;4.00;99.90;;;3.74;100.00;101283.13;5259231;28;20052;-47
2024/01/07 07:53:40;;;;;;;12.70;5.55;;;4.00;99.90;;;3.72;100.00;101285.63;5261460;28;20071;-47
2024/01/07 07:56:12;;;;;;;9.40;4.65;;;4.00;99.90;;;3.76;100.00;101284.13;5250088;28;20139;-47
2024/01/07 07:58:45;;;;;;;9.20;4.07;;;4.00;99.90;;;3.77;100.00;101293.66;5256812;28;20052;-48
2024/01/07 08:01:19;;;;;;;14.15;5.03;;;4.10;99.90;;;3.78;100.00;101293.78;5244465;28;20052;-48
2024/01/07 08:03:51;;;;;;;10.32;4.50;;;4.10;99.90;;;3.77;100.00;101297.13;5252112;28;20121;-46
2024/01/07 08:06:24;;;;;;;9.23;4.30;;;4.10;99.90;;;3.79;100.00;101293.00;5259178;28;20060;-47
2024/01/07 08:08:56;;;;;;;9.18;3.75;;;4.10;99.90;;;3.80;100.00;101306.78;5248349;28;20127;-47
2024/01/07 08:11:29;;;;;;;8.82;3.13;;;4.10;99.90;;;3.80;100.00;101310.25;5250658;28;20052;-47
2024/01/07 08:14:02;;;;;;;10.23;3.17;;;4.10;99.90;;;3.82;100.00;101310.34;5248438;28;20067;-46
2024/01/07 08:16:36;;;;;;;7.57;3.30;;;4.10;99.90;;;3.83;100.00;101309.56;5250485;28;20058;-47
2024/01/07 08:19:08;;;;;;;10.52;4.30;;;4.10;99.90;;;3.84;100.00;101313.03;5252895;28;20529;-46
2024/01/07 08:21:41;;;;;;;10.15;3.97;;;4.10;99.90;;;3.88;100.00;101323.69;5255734;28;20053;-47
2024/01/07 08:24:13;;;;;;;9.43;3.75;;;4.20;99.90;;;3.87;100.00;101316.72;5258255;28;20052;-47
2024/01/07 08:26:45;;;;;;;8.65;3.55;;;4.20;99.90;;;3.87;100.00;101327.06;5262944;28;20068;-47
2024/01/07 08:29:18;;;;;;;11.10;4.70;;;4.20;99.90;;;3.83;100.00;101335.34;5256018;28;20055;-47
2024/01/07 08:31:51;;;;;;;7.95;3.60;;;4.10;99.90;;;3.85;100.00;101332.88;5249654;28;20403;-47
2024/01/07 08:34:24;;;;;;;6.53;3.40;;;4.10;99.90;;;3.87;100.00;101339.06;5251223;28;20047;-47
2024/01/07 08:36:57;;;;;;;10.10;3.65;;;4.10;99.90;;;3.89;100.00;101345.19;5262577;28;20059;-46
2024/01/07 08:39:29;;;;;;;9.48;4.55;;;4.20;99.90;;;3.90;100.00;101345.31;5252501;28;20531;-47
2024/01/07 08:42:03;;;;;;;4.72;2.42;;;4.20;99.90;;;4.02;100.00;101346.16;5247452;28;20048;-47
2024/01/07 08:44:36;;;;;;;6.05;3.22;;;4.20;99.90;;;4.62;100.00;101358.88;5258146;28;20054;-47
2024/01/07 08:47:10;;;;;;;10.35;4.25;;;4.70;99.90;;;4.46;100.00;101350.91;5235342;28;20041;-47
2024/01/07 08:49:43;;;;;;;8.65;3.90;;;4.70;99.90;;;4.36;100.00;101351.97;5242275;28;20071;-46
2024/01/07 08:52:15;;;;;;;6.25;2.85;;;4.70;99.90;;;4.27;100.00;101350.44;5243072;28;20101;-46
2024/01/07 08:54:48;;;;;;;11.63;4.85;;;4.60;99.90;;;4.23;100.00;101363.91;5243930;28;20094;-46
2024/01/07 08:57:20;;;;;;;6.55;3.53;;;4.60;99.90;;;4.23;100.00;101358.75;5244876;28;20053;-46
2024/01/07 08:59:52;;;;;;;9.23;4.63;;;4.60;99.90;;;4.38;100.00;101362.41;5242843;28;20384;-48
2024/01/07 09:02:26;;;;;;;11.80;4.05;;;4.70;99.90;;;4.53;100.00;101367.72;5241700;28;20045;-48
2024/01/07 09:04:59;;;;;;;11.02;4.95;;;4.80;99.90;;;4.75;100.00;101372.63;5242297;28;20061;-47
2024/01/07 09:07:31;;;;;;;10.95;5.03;;;4.90;99.90;;;4.67;100.00;101368.66;5244840;28;20052;-46
2024/01/07 09:10:08;;;;;;;8.85;4.50;;;4.90;99.90;;;4.55;100.00;101379.03;5239116;28;20032;-46
2024/01/07 09:12:41;;;;;;;12.05;4.63;;;4.90;99.90;;;4.43;100.00;101373.91;5238528;28;20231;-46
2024/01/07 09:15:13;;;;;;;8.50;4.20;;;4.80;99.90;;;4.36;100.00;101382.94;5247264;28;20041;-46
2024/01/07 09:17:48;;;;;;;10.30;4.68;;;4.70;99.90;;;4.25;100.00;101385.59;5242611;28;20080;-46
2024/01/07 09:20:20;;;;;;;8.57;4.45;;;4.60;99.90;;;4.11;100.00;101391.44;5233567;28;20037;-46
2024/01/07 09:22:53;;;;;;;8.82;4.65;;;4.50;99.90;;;4.09;100.00;101397.41;5241371;28;20049;-45
2024/01/07 09:25:25;;;;;;;10.05;4.50;;;4.40;99.90;;;4.16;100.00;101408.16;5257449;28;20498;-46
2024/01/07 09:27:58;;;;;;;14.77;4.53;;;4.50;99.90;;;4.24;100.00;101412.19;5240579;28;20132;-47
2024/01/07 09:30:30;;;;;;;12.15;4.30;;;4.60;99.90;;;4.27;100.00;101408.13;5251019;28;20060;-46
2024/01/07 09:33:05;;;;;;;9.18;4.35;;;4.60;99.90;;;4.28;100.00;101409.91;5244631;28;20049;-46
2024/01/07 09:35:37;;;;;;;11.85;5.15;;;4.60;99.90;;;4.31;100.00;101406.66;5246954;28;20040;-46
2024/01/07 09:38:09;;;;;;;15.85;5.20;;;4.60;99.90;;;4.22;100.00;101413.75;5239414;28;20507;-47
2024/01/07 09:40:42;;;;;;;9.45;3.88;;;4.60;99.90;;;4.14;100.00;101420.06;5239051;28;20051;-47
2024/01/07 09:43:14;;;;;;;10.70;4.95;;;4.50;99.90;;;4.08;100.00;101420.53;5235852;28;20044;-47
2024/01/07 09:45:48;;;;;;;15.93;5.72;;;4.40;99.90;;;3.99;100.00;101420.78;5233892;28;20068;-47
2024/01/07 09:48:22;;;;;;;11.48;4.68;;;4.40;99.90;;;3.92;100.00;101418.56;5243130;28;20055;-47
2024/01/07 09:50:54;;;;;;;12.23;5.45;;;4.30;99.90;;;3.86;100.00;101418.13;5235474;28;20466;-46
2024/01/07 09:53:31;;;;;;;11.60;5.45;;;4.20;99.90;;;3.83;100.00;101422.16;5243686;28;20049;-46
2024/01/07 09:56:13;;;;;;;12.40;5.95;;;4.20;99.90;;;3.78;100.00;101430.47;5239428;28;20105;-46
2024/01/07 09:58:49;;;;;;;11.75;3.92;;;4.10;99.90;;;3.77;100.00;101422.59;5232995;28;20041;-47
2024/01/07 10:01:21;;;;;;;8.50;3.95;;;4.20;99.90;;;3.76;100.00;101428.53;5245705;28;20056;-47
2024/01/07 10:03:56;;;;;;;9.85;4.22;;;4.10;99.90;;;3.72;100.00;101434.28;5241442;28;20047;-46
2024/01/07 10:06:29;;;;;;;13.05;5.25;;;4.10;99.90;;;3.74;100.00;101437.88;5236345;28;20044;-46
2024/01/07 10:09:01;;;;;;;9.52;4.35;;;4.10;99.90;;;3.75;100.00;101440.53;5236755;28;20566;-46
2024/01/07 10:11:35;;;;;;;12.15;5.72;;;4.10;99.90;;;3.79;100.00;101442.56;5232463;28;20044;-45
2024/01/07 10:14:08;;;;;;;11.85;4.57;;;4.10;99.90;;;3.76;100.00;101436.28;5227904;28;20396;-46
2024/01/07 10:16:40;;;;;;;11.20;4.80;;;4.10;99.90;;;3.79;100.00;101433.94;5229857;28;20056;-46
2024/01/07 10:19:22;;;;;;;12.57;4.35;;;4.10;99.90;;;3.80;100.00;101446.03;5229608;28;20045;-46
2024/01/07 10:22:01;;;;;;;10.35;3.63;;;4.10;99.90;;;3.78;100.00;101450.19;5237177;28;20076;-47
2024/01/07 10:24:39;;;;;;;8.70;4.75;;;4.10;99.90;;;3.78;100.00;101450.19;5236401;28;20044;-46
2024/01/07 10:27:13;;;;;;;10.25;4.25;;;4.10;99.90;;;3.78;100.00;101445.00;5235678;28;20051;-46
2024/01/07 10:29:49;;;;;;;9.15;3.58;;;4.10;99.90;;;3.78;100.00;101439.84;5231479;28;20041;-46
2024/01/07 10:32:22;;;;;;;8.65;3.70;;;4.10;99.90;;;3.78;100.00;101442.44;5244249;28;20051;-46
2024/01/07 10:35:04;;;;;;;5.93;3.10;;;4.10;99.90;;;3.74;100.00;101441.34;5235997;28;20052;-46
2024/01/07 10:37:36;;;;;;;10.18;3.60;;;4.10;99.90;;;3.74;100.00;101454.22;5234142;28;20069;-46
2024/01/07 10:40:12;;;;;;;8.23;3.70;;;4.10;99.90;;;3.84;100.00;101453.19;5237280;28;20039;-47